Time;durP1;ratioP1;P1;durP2;ratioP2;P2;SDS_P1;SDS_P2;PMS_P1;PMS_P2;Temp;Humidity;BMP_temperature;BMP_pressure;BME280_temperature;BME280_humidity;BME280_pressure;Samples;Min_cycle;Max_cycle;Signal;HPM_P1;HPM_P2
2021/03/23 00:00:55;;;;;;;24.10;15.57;;;4.80;99.90;;;;;;4985567;28;20498;-78
2021/03/23 00:03:38;;;;;;;20.10;15.65;;;4.80;99.90;;;;;;4989131;28;20647;-78
2021/03/23 00:06:07;;;;;;;25.42;16.10;;;4.80;99.90;;;;;;5021416;28;20161;-79
2021/03/23 00:08:35;;;;;;;23.30;17.05;;;4.80;99.90;;;;;;5004881;28;20065;-79
2021/03/23 00:11:07;;;;;;;17.95;14.95;;;4.90;99.90;;;;;;4988664;28;20046;-78
2021/03/23 00:13:37;;;;;;;20.13;16.10;;;4.80;99.90;;;;;;4988470;28;20041;-78
2021/03/23 00:16:04;;;;;;;22.80;15.73;;;4.80;99.90;;;;;;5005014;28;20240;-79
2021/03/23 00:18:30;;;;;;;21.90;15.38;;;4.90;99.90;;;;;;5004996;28;20245;-78
2021/03/23 00:20:57;;;;;;;19.70;16.27;;;4.90;99.90;;;;;;4987427;28;20580;-79
2021/03/23 00:23:23;;;;;;;24.90;16.15;;;4.90;99.90;;;;;;4973808;28;20198;-80
2021/03/23 00:25:50;;;;;;;20.77;15.52;;;4.90;99.90;;;;;;4985330;28;20070;-78
2021/03/23 00:28:17;;;;;;;22.70;15.50;;;4.90;99.90;;;;;;5002251;28;20081;-78
2021/03/23 00:30:43;;;;;;;19.48;16.92;;;4.90;99.90;;;;;;4984946;28;20066;-79
2021/03/23 00:33:09;;;;;;;19.30;16.08;;;4.90;99.90;;;;;;4985382;28;20671;-78
2021/03/23 00:35:36;;;;;;;21.13;16.88;;;4.90;99.90;;;;;;4999693;28;20053;-79
2021/03/23 00:38:04;;;;;;;19.13;16.48;;;4.90;99.90;;;;;;5016265;28;20060;-79
2021/03/23 00:40:34;;;;;;;25.65;15.95;;;5.00;99.90;;;;;;5004907;28;20495;-79
2021/03/23 00:43:02;;;;;;;20.42;16.85;;;4.90;99.90;;;;;;5005144;28;20149;-78
2021/03/23 00:45:30;;;;;;;21.67;16.90;;;4.90;99.90;;;;;;5004576;28;20145;-79
2021/03/23 00:47:57;;;;;;;23.88;15.93;;;4.90;99.90;;;;;;5005055;28;20507;-79
2021/03/23 00:50:23;;;;;;;25.75;17.67;;;4.90;99.90;;;;;;5004499;28;20149;-78
2021/03/23 00:52:50;;;;;;;21.85;16.17;;;4.90;99.90;;;;;;4987331;28;20073;-78
2021/03/23 00:55:16;;;;;;;25.52;16.65;;;4.90;99.90;;;;;;5003166;28;20125;-79
2021/03/23 00:57:43;;;;;;;27.95;17.00;;;4.90;99.90;;;;;;4988112;28;20133;-78
2021/03/23 01:00:11;;;;;;;23.55;15.88;;;4.80;99.90;;;;;;5005409;28;20050;-79
2021/03/23 01:02:39;;;;;;;24.88;16.33;;;4.80;99.90;;;;;;4988006;28;20068;-77
2021/03/23 01:05:06;;;;;;;23.85;16.52;;;4.80;99.90;;;;;;4988460;28;20578;-78
2021/03/23 01:07:33;;;;;;;22.52;16.63;;;4.80;99.90;;;;;;4988774;28;20135;-78
2021/03/23 01:09:59;;;;;;;25.40;16.48;;;4.90;99.90;;;;;;4988082;28;20072;-78
2021/03/23 01:12:25;;;;;;;24.27;16.92;;;4.90;99.90;;;;;;4990650;28;20042;-79
2021/03/23 01:14:52;;;;;;;23.60;17.30;;;4.90;99.90;;;;;;4992162;28;20050;-79
2021/03/23 01:17:18;;;;;;;25.73;17.92;;;4.80;99.90;;;;;;5007998;28;20064;-79
2021/03/23 01:19:44;;;;;;;30.00;16.67;;;4.80;99.90;;;;;;5007303;28;20200;-78
2021/03/23 01:22:11;;;;;;;28.20;16.38;;;4.80;99.90;;;;;;5007546;28;20077;-79
2021/03/23 01:24:37;;;;;;;23.55;16.38;;;4.70;99.90;;;;;;4992205;28;20631;-79
2021/03/23 01:27:04;;;;;;;22.38;16.00;;;4.60;99.90;;;;;;4987644;28;20575;-78
2021/03/23 01:29:31;;;;;;;24.92;16.42;;;4.70;99.90;;;;;;5003117;28;20052;-78
2021/03/23 01:31:58;;;;;;;26.05;18.00;;;4.70;99.90;;;;;;4956360;28;20125;-79
2021/03/23 01:34:45;;;;;;;32.08;18.50;;;4.70;99.90;;;;;;5017433;28;20049;-78
2021/03/23 01:37:13;;;;;;;26.77;17.40;;;4.70;99.90;;;;;;5007005;28;20054;-78
2021/03/23 01:39:39;;;;;;;33.38;19.80;;;4.60;99.90;;;;;;4992019;28;20073;-79
2021/03/23 01:42:07;;;;;;;29.85;17.83;;;4.60;99.90;;;;;;5007431;28;20140;-78
2021/03/23 01:44:34;;;;;;;26.42;17.90;;;4.60;99.90;;;;;;4992266;28;20461;-78
2021/03/23 01:47:00;;;;;;;30.75;18.40;;;4.50;99.90;;;;;;5007359;28;20498;-79
2021/03/23 01:49:45;;;;;;;24.02;17.23;;;4.50;99.90;;;;;;5008153;28;20050;-78
2021/03/23 01:52:20;;;;;;;27.30;17.08;;;4.50;99.90;;;;;;4990072;28;20053;-79
2021/03/23 01:54:55;;;;;;;25.05;18.73;;;4.50;99.90;;;;;;5008056;28;20077;-79
2021/03/23 01:57:21;;;;;;;29.45;17.30;;;4.50;99.90;;;;;;5008800;28;20046;-77
2021/03/23 01:59:52;;;;;;;27.48;17.15;;;4.60;99.90;;;;;;4991547;28;20083;-78
2021/03/23 02:02:23;;;;;;;29.67;18.20;;;4.60;99.90;;;;;;4989938;28;20057;-78
2021/03/23 02:05:05;;;;;;;26.50;18.02;;;4.60;99.90;;;;;;5003197;28;20065;-79
2021/03/23 02:07:31;;;;;;;31.27;18.40;;;4.60;99.90;;;;;;4975248;28;20046;-79
2021/03/23 02:09:59;;;;;;;27.63;18.25;;;4.60;99.90;;;;;;5007273;28;20054;-78
2021/03/23 02:12:28;;;;;;;32.60;19.25;;;4.50;99.90;;;;;;5007639;28;20050;-78
2021/03/23 02:14:55;;;;;;;28.25;17.90;;;4.50;99.90;;;;;;5007019;28;20046;-78
2021/03/23 02:17:28;;;;;;;30.63;18.35;;;4.50;99.90;;;;;;5007087;28;20041;-78
2021/03/23 02:19:58;;;;;;;26.67;18.58;;;4.50;99.90;;;;;;4990997;28;20049;-77
2021/03/23 02:22:34;;;;;;;27.52;19.73;;;4.50;99.90;;;;;;4984139;28;20178;-79
2021/03/23 02:25:02;;;;;;;33.65;19.10;;;4.50;99.90;;;;;;4984625;28;20084;-80
2021/03/23 02:27:29;;;;;;;31.23;19.50;;;4.50;99.90;;;;;;4979165;28;20047;-77
2021/03/23 02:29:59;;;;;;;29.70;19.30;;;4.50;99.90;;;;;;4988989;28;20049;-78
2021/03/23 02:32:25;;;;;;;31.48;18.98;;;4.50;99.90;;;;;;4986279;28;20035;-79
2021/03/23 02:34:52;;;;;;;28.95;19.23;;;4.50;99.90;;;;;;5001334;28;20054;-78
2021/03/23 02:37:18;;;;;;;23.83;18.67;;;4.50;99.90;;;;;;5005591;28;20430;-77
2021/03/23 02:39:45;;;;;;;30.15;19.67;;;4.50;99.90;;;;;;4991698;28;20198;-79
2021/03/23 02:42:12;;;;;;;33.15;19.02;;;4.50;99.90;;;;;;4990840;28;20149;-78
2021/03/23 02:44:43;;;;;;;36.38;20.23;;;4.60;99.90;;;;;;4991711;28;20073;-79
2021/03/23 02:47:09;;;;;;;31.98;18.58;;;4.60;99.90;;;;;;5007626;28;20041;-78
2021/03/23 02:49:38;;;;;;;29.90;20.30;;;4.60;99.90;;;;;;4990798;28;20053;-79
2021/03/23 02:52:05;;;;;;;28.02;18.35;;;4.60;99.90;;;;;;4985372;28;20497;-79
2021/03/23 02:54:31;;;;;;;25.25;18.02;;;4.50;99.90;;;;;;5002188;28;20056;-79
2021/03/23 02:56:58;;;;;;;27.02;18.75;;;4.50;99.90;;;;;;5006014;28;20057;-79
2021/03/23 02:59:24;;;;;;;30.15;19.35;;;4.50;99.90;;;;;;4990297;28;20081;-79
2021/03/23 03:01:51;;;;;;;26.30;19.45;;;4.50;99.90;;;;;;4990384;28;20049;-78
2021/03/23 03:04:18;;;;;;;28.20;20.20;;;4.50;99.90;;;;;;4989914;28;20049;-79
2021/03/23 03:06:44;;;;;;;28.85;18.58;;;4.50;99.90;;;;;;4989503;28;20049;-79
2021/03/23 03:09:11;;;;;;;32.58;20.08;;;4.50;99.90;;;;;;5007061;28;20129;-80
2021/03/23 03:11:37;;;;;;;31.88;19.65;;;4.50;99.90;;;;;;4988658;28;20722;-78
2021/03/23 03:14:04;;;;;;;30.13;19.42;;;4.50;99.90;;;;;;4989483;28;20137;-78
2021/03/23 03:16:31;;;;;;;32.05;20.33;;;4.40;99.90;;;;;;4989830;28;20204;-78
2021/03/23 03:18:57;;;;;;;32.58;19.92;;;4.50;99.90;;;;;;5006692;28;20054;-78
2021/03/23 03:21:24;;;;;;;31.58;20.15;;;4.40;99.90;;;;;;5006038;28;20416;-78
2021/03/23 03:23:51;;;;;;;28.33;19.80;;;4.50;99.90;;;;;;5007512;28;20064;-78
2021/03/23 03:26:17;;;;;;;28.95;18.52;;;4.40;99.90;;;;;;4991064;28;20034;-79
2021/03/23 03:28:50;;;;;;;32.40;19.83;;;4.40;99.90;;;;;;5005453;28;20056;-77
2021/03/23 03:31:23;;;;;;;25.83;19.23;;;4.40;99.90;;;;;;4988474;28;20121;-79
2021/03/23 03:33:52;;;;;;;25.25;19.60;;;4.50;99.90;;;;;;4999876;28;20053;-79
2021/03/23 03:36:21;;;;;;;29.83;19.20;;;4.40;99.90;;;;;;4981689;28;20046;-78
2021/03/23 03:38:47;;;;;;;34.13;21.05;;;4.40;99.90;;;;;;4986020;28;20065;-78
2021/03/23 03:41:14;;;;;;;27.08;19.77;;;4.50;99.90;;;;;;4978462;28;20093;-78
2021/03/23 03:43:41;;;;;;;28.60;19.85;;;4.40;99.90;;;;;;5007122;28;20144;-78
2021/03/23 03:46:08;;;;;;;29.90;20.85;;;4.40;99.90;;;;;;5004458;28;20705;-79
2021/03/23 03:48:36;;;;;;;34.90;24.52;;;4.40;99.90;;;;;;4989533;28;20041;-78
2021/03/23 03:51:03;;;;;;;37.60;22.00;;;4.40;99.90;;;;;;4982210;28;20452;-78
2021/03/23 03:53:30;;;;;;;33.03;20.08;;;4.50;99.90;;;;;;5002350;28;20126;-80
2021/03/23 03:55:57;;;;;;;31.20;20.50;;;4.40;99.90;;;;;;4988419;28;20509;-77
2021/03/23 03:58:23;;;;;;;26.38;18.60;;;4.40;99.90;;;;;;5004929;28;20594;-78
2021/03/23 04:00:50;;;;;;;32.83;19.80;;;4.30;99.90;;;;;;4980036;28;20058;-77
2021/03/23 04:03:21;;;;;;;26.38;18.42;;;4.40;99.90;;;;;;4975701;28;20561;-78
2021/03/23 04:05:49;;;;;;;28.38;19.38;;;4.30;99.90;;;;;;4969091;28;20042;-78
2021/03/23 04:08:19;;;;;;;27.15;18.35;;;4.40;99.90;;;;;;4953180;28;20177;-77
2021/03/23 04:10:47;;;;;;;23.92;17.90;;;4.30;99.90;;;;;;4959813;28;20042;-79
2021/03/23 04:13:14;;;;;;;25.23;18.13;;;4.30;99.90;;;;;;4983892;28;20065;-78
2021/03/23 04:15:43;;;;;;;25.98;18.10;;;4.30;99.90;;;;;;4991091;28;20046;-78
2021/03/23 04:18:13;;;;;;;25.35;18.33;;;4.20;99.90;;;;;;5000064;28;20046;-78
2021/03/23 04:20:40;;;;;;;29.27;17.27;;;4.20;99.90;;;;;;4991560;28;20046;-78
2021/03/23 04:23:08;;;;;;;24.08;18.13;;;4.20;99.90;;;;;;4972828;28;20165;-78
2021/03/23 04:25:35;;;;;;;23.48;17.60;;;4.20;99.90;;;;;;4987758;28;20046;-78
2021/03/23 04:28:02;;;;;;;23.85;17.33;;;4.20;99.90;;;;;;5005229;28;20752;-78
2021/03/23 04:30:29;;;;;;;26.92;18.33;;;4.20;99.90;;;;;;5004086;28;20299;-77
2021/03/23 04:32:56;;;;;;;26.88;17.55;;;4.20;99.90;;;;;;4988326;28;20361;-78
2021/03/23 04:35:25;;;;;;;18.30;16.17;;;4.20;99.90;;;;;;4986174;28;20052;-78
2021/03/23 04:37:53;;;;;;;23.20;16.10;;;4.20;99.90;;;;;;4988141;28;20050;-78
2021/03/23 04:40:19;;;;;;;23.27;16.80;;;4.20;99.90;;;;;;4984361;28;20133;-79
2021/03/23 04:42:46;;;;;;;21.63;16.52;;;4.20;99.90;;;;;;4988959;28;20129;-78
2021/03/23 04:45:12;;;;;;;20.48;16.73;;;4.20;99.90;;;;;;4996642;28;20166;-77
2021/03/23 04:47:39;;;;;;;20.70;16.15;;;4.30;99.90;;;;;;5009187;28;20058;-79
2021/03/23 04:50:08;;;;;;;21.70;15.15;;;4.20;99.90;;;;;;4991905;28;20054;-78
2021/03/23 04:52:34;;;;;;;19.00;14.15;;;4.30;99.90;;;;;;4975127;28;20073;-79
2021/03/23 04:55:01;;;;;;;16.38;12.93;;;4.30;99.90;;;;;;5006644;28;20053;-78
2021/03/23 04:57:27;;;;;;;25.08;16.10;;;4.30;99.90;;;;;;4991297;28;20058;-78
2021/03/23 04:59:53;;;;;;;21.33;15.95;;;4.20;99.90;;;;;;5008345;28;20038;-78
2021/03/23 05:02:20;;;;;;;20.45;14.95;;;4.20;99.90;;;;;;5003656;28;20046;-79
2021/03/23 05:04:46;;;;;;;22.08;15.13;;;4.10;99.90;;;;;;4988534;28;20085;-79
2021/03/23 05:07:23;;;;;;;19.55;14.60;;;4.20;99.90;;;;;;5007034;28;20053;-79
2021/03/23 05:09:50;;;;;;;21.73;15.07;;;4.10;99.90;;;;;;5007162;28;20053;-79
2021/03/23 05:12:17;;;;;;;21.23;16.00;;;4.20;99.90;;;;;;4991233;28;20486;-78
2021/03/23 05:14:47;;;;;;;16.83;14.80;;;4.20;99.90;;;;;;4998309;28;20050;-78
2021/03/23 05:17:14;;;;;;;19.38;15.20;;;4.20;99.90;;;;;;4990655;28;20128;-78
2021/03/23 05:19:41;;;;;;;18.08;13.88;;;4.20;99.90;;;;;;4990871;28;20056;-78
2021/03/23 05:22:08;;;;;;;27.17;14.88;;;4.20;99.90;;;;;;4990550;28;20124;-78
2021/03/23 05:24:34;;;;;;;21.20;15.05;;;4.20;99.90;;;;;;5006854;28;20062;-79
2021/03/23 05:27:00;;;;;;;18.38;14.77;;;4.20;99.90;;;;;;5014367;28;20123;-77
2021/03/23 05:29:27;;;;;;;17.67;14.27;;;4.30;99.90;;;;;;4982561;28;20046;-78
2021/03/23 05:31:53;;;;;;;18.17;14.35;;;4.20;99.90;;;;;;4993429;28;20591;-77
2021/03/23 05:34:20;;;;;;;19.75;15.18;;;4.30;99.90;;;;;;5008146;28;20085;-78
2021/03/23 05:36:46;;;;;;;21.45;14.43;;;4.20;99.90;;;;;;4990708;28;20658;-77
2021/03/23 05:39:13;;;;;;;16.63;14.85;;;4.30;99.90;;;;;;5007955;28;20103;-79
2021/03/23 05:41:56;;;;;;;19.83;15.93;;;4.20;99.90;;;;;;4974339;28;20389;-78
2021/03/23 05:44:57;;;;;;;21.90;16.15;;;4.30;99.90;;;;;;4990962;28;20124;-78
2021/03/23 05:47:33;;;;;;;26.42;15.70;;;4.30;99.90;;;;;;4974554;28;20196;-78
2021/03/23 05:50:23;;;;;;;20.40;18.23;;;4.30;99.90;;;;;;4991286;28;20417;-78
2021/03/23 05:52:57;;;;;;;19.42;17.20;;;4.30;99.90;;;;;;4991236;28;20136;-78
2021/03/23 05:55:37;;;;;;;17.45;14.57;;;4.30;99.90;;;;;;5007280;28;20108;-80
2021/03/23 05:58:05;;;;;;;22.08;16.35;;;4.30;99.90;;;;;;5007814;28;20065;-79
2021/03/23 06:00:35;;;;;;;18.35;15.07;;;4.30;99.90;;;;;;4989764;28;20045;-78
2021/03/23 06:03:25;;;;;;;19.63;16.08;;;4.30;99.90;;;;;;5007415;28;20084;-79
2021/03/23 06:06:22;;;;;;;21.98;15.32;;;4.40;99.90;;;;;;4990580;28;20050;-79
2021/03/23 06:08:50;;;;;;;16.63;14.73;;;4.40;99.90;;;;;;5008625;28;20116;-78
2021/03/23 06:11:34;;;;;;;17.85;15.98;;;4.50;99.90;;;;;;5007341;28;20050;-78
2021/03/23 06:14:24;;;;;;;18.25;15.95;;;4.60;99.90;;;;;;4989160;28;20411;-78
2021/03/23 06:17:29;;;;;;;20.05;17.27;;;4.60;99.90;;;;;;5014522;28;20273;-78
2021/03/23 06:20:36;;;;;;;17.90;16.00;;;4.60;99.90;;;;;;5003134;28;20534;-78
2021/03/23 06:23:30;;;;;;;19.33;17.10;;;4.60;99.90;;;;;;4983593;28;20115;-78
2021/03/23 06:26:05;;;;;;;19.98;17.88;;;4.60;99.90;;;;;;4989918;28;20046;-78
2021/03/23 06:29:00;;;;;;;19.00;17.08;;;4.70;99.90;;;;;;5004652;28;20043;-77
2021/03/23 06:32:14;;;;;;;19.88;16.52;;;4.70;99.90;;;;;;4990137;28;20092;-79
2021/03/23 06:34:42;;;;;;;18.52;16.73;;;4.70;99.90;;;;;;4990577;28;20116;-79
2021/03/23 06:37:20;;;;;;;21.50;17.85;;;4.70;99.90;;;;;;5005510;28;20112;-79
2021/03/23 06:39:47;;;;;;;20.60;18.55;;;4.70;99.90;;;;;;5007406;28;20481;-78
2021/03/23 06:42:31;;;;;;;21.10;18.55;;;4.60;99.90;;;;;;4990390;28;20042;-79
2021/03/23 06:45:20;;;;;;;37.42;26.35;;;4.60;99.90;;;;;;5007208;28;20060;-77
2021/03/23 06:47:48;;;;;;;22.10;18.85;;;4.70;99.90;;;;;;4990543;28;20049;-78
2021/03/23 06:50:34;;;;;;;19.08;16.95;;;4.80;99.90;;;;;;4985639;28;20062;-79
2021/03/23 06:53:03;;;;;;;23.30;17.67;;;4.70;99.90;;;;;;4980049;28;20085;-78
2021/03/23 06:55:29;;;;;;;20.42;18.10;;;4.70;99.90;;;;;;4966749;28;20144;-78
2021/03/23 06:57:56;;;;;;;19.65;16.63;;;4.70;99.90;;;;;;4974990;28;20561;-79
2021/03/23 07:00:33;;;;;;;23.15;17.55;;;4.70;99.90;;;;;;5005430;28;20038;-78
2021/03/23 07:03:25;;;;;;;24.08;17.25;;;4.60;99.90;;;;;;5006951;28;20054;-79
2021/03/23 07:05:53;;;;;;;23.35;17.13;;;4.60;99.90;;;;;;5006185;28;20608;-79
2021/03/23 07:08:23;;;;;;;17.42;15.52;;;4.50;99.90;;;;;;4988887;28;20140;-78
2021/03/23 07:10:52;;;;;;;20.13;16.13;;;4.50;99.90;;;;;;5001070;28;20125;-78
2021/03/23 07:13:31;;;;;;;20.27;17.48;;;4.60;99.90;;;;;;4992572;28;20058;-79
2021/03/23 07:16:27;;;;;;;18.50;16.58;;;4.50;99.90;;;;;;4973452;28;20054;-78
2021/03/23 07:19:08;;;;;;;19.52;17.20;;;4.50;99.90;;;;;;5015106;28;20058;-79
2021/03/23 07:21:46;;;;;;;20.25;17.27;;;4.50;99.90;;;;;;5020097;28;20078;-78
2021/03/23 07:24:19;;;;;;;19.80;17.80;;;4.50;99.90;;;;;;4990327;28;20084;-78
2021/03/23 07:27:07;;;;;;;25.65;18.35;;;4.50;99.90;;;;;;5006303;28;20042;-77
2021/03/23 07:29:38;;;;;;;20.48;18.25;;;4.50;99.90;;;;;;4989850;28;20515;-78
2021/03/23 07:32:25;;;;;;;23.52;19.50;;;4.50;99.90;;;;;;4991904;28;20050;-79
2021/03/23 07:35:24;;;;;;;24.05;19.40;;;4.50;99.90;;;;;;5006199;28;20662;-78
2021/03/23 07:37:58;;;;;;;19.90;17.88;;;4.50;99.90;;;;;;4992896;28;20054;-77
2021/03/23 07:40:30;;;;;;;23.13;20.65;;;4.50;99.90;;;;;;4967626;28;20068;-79
2021/03/23 07:43:04;;;;;;;19.08;17.13;;;4.60;99.90;;;;;;4969536;28;20691;-77
2021/03/23 07:45:49;;;;;;;20.83;18.60;;;4.50;99.90;;;;;;4982166;28;20057;-77
2021/03/23 07:49:02;;;;;;;20.98;17.55;;;4.60;99.90;;;;;;4989730;28;20081;-80
2021/03/23 07:51:36;;;;;;;20.02;17.75;;;4.70;99.90;;;;;;4944620;28;20050;-80
2021/03/23 07:54:35;;;;;;;21.30;17.88;;;4.70;99.90;;;;;;4972957;28;20506;-79
2021/03/23 07:57:28;;;;;;;21.58;17.95;;;4.80;99.90;;;;;;4955126;28;20594;-78
2021/03/23 08:00:37;;;;;;;21.80;19.00;;;4.90;99.90;;;;;;4971963;28;20101;-78
2021/03/23 08:03:12;;;;;;;24.95;19.33;;;4.80;99.90;;;;;;4928197;29;20067;-78
2021/03/23 08:05:51;;;;;;;25.77;20.38;;;4.80;99.90;;;;;;4927765;29;20071;-79
2021/03/23 08:08:36;;;;;;;24.17;21.35;;;4.90;99.90;;;;;;4963586;28;20053;-78
2021/03/23 08:11:43;;;;;;;28.10;21.33;;;4.90;99.90;;;;;;4969373;28;20137;-79
2021/03/23 08:14:50;;;;;;;29.67;22.38;;;5.10;99.90;;;;;;5002135;28;20136;-78
2021/03/23 08:17:48;;;;;;;31.58;22.30;;;5.20;99.90;;;;;;4926061;28;20053;-78
2021/03/23 08:20:17;;;;;;;31.92;23.90;;;5.40;99.90;;;;;;4981506;28;20557;-79
2021/03/23 08:23:09;;;;;;;29.05;22.05;;;5.40;99.90;;;;;;5025364;28;20089;-77
2021/03/23 08:25:46;;;;;;;33.40;24.33;;;5.30;99.90;;;;;;4989482;28;20042;-79
2021/03/23 08:28:50;;;;;;;32.42;22.35;;;5.40;99.90;;;;;;4999475;28;20047;-78
2021/03/23 08:31:30;;;;;;;31.65;22.92;;;5.40;99.90;;;;;;4990750;28;20156;-79
2021/03/23 08:34:29;;;;;;;33.10;23.90;;;5.50;99.90;;;;;;5003460;28;20526;-78
2021/03/23 08:37:04;;;;;;;30.75;22.90;;;5.50;99.90;;;;;;4989931;28;20140;-78
2021/03/23 08:39:49;;;;;;;30.58;22.75;;;5.40;99.90;;;;;;4986068;28;20046;-77
2021/03/23 08:42:20;;;;;;;34.83;24.35;;;5.40;99.90;;;;;;5001896;28;20057;-79
2021/03/23 08:44:59;;;;;;;33.35;23.40;;;5.40;99.90;;;;;;4979093;28;20118;-79
2021/03/23 08:47:40;;;;;;;35.63;25.15;;;5.40;99.90;;;;;;5008826;28;20046;-79
2021/03/23 08:50:15;;;;;;;42.90;26.17;;;5.60;99.90;;;;;;4990929;28;20557;-79
2021/03/23 08:52:48;;;;;;;34.22;24.20;;;5.60;99.90;;;;;;4971070;28;20106;-78
2021/03/23 08:55:29;;;;;;;40.90;26.73;;;5.70;99.90;;;;;;4938589;28;20082;-79
2021/03/23 08:58:02;;;;;;;35.25;25.65;;;5.70;99.90;;;;;;4988771;28;20054;-79
2021/03/23 09:00:56;;;;;;;33.15;25.65;;;5.80;99.90;;;;;;4989452;28;20082;-78
2021/03/23 09:03:45;;;;;;;38.20;27.85;;;5.80;99.90;;;;;;4971518;28;20047;-78
2021/03/23 09:06:18;;;;;;;38.22;26.70;;;5.80;99.90;;;;;;4975790;28;20080;-78
2021/03/23 09:09:05;;;;;;;38.70;28.38;;;6.00;99.90;;;;;;5009250;28;20556;-78
2021/03/23 09:11:34;;;;;;;37.92;28.00;;;6.00;99.90;;;;;;4970712;28;20050;-79
2021/03/23 09:14:07;;;;;;;37.58;28.25;;;6.10;99.90;;;;;;4972776;28;20050;-78
2021/03/23 09:16:54;;;;;;;42.72;30.48;;;6.10;99.90;;;;;;4972785;28;20046;-78
2021/03/23 09:19:42;;;;;;;41.30;28.52;;;6.20;99.90;;;;;;4956813;28;20050;-78
2021/03/23 09:22:16;;;;;;;37.78;28.30;;;6.20;99.90;;;;;;4983735;28;20068;-78
2021/03/23 09:24:44;;;;;;;43.53;29.75;;;6.10;99.90;;;;;;4956081;28;20078;-77
2021/03/23 09:27:25;;;;;;;46.33;30.48;;;6.10;99.90;;;;;;5004768;28;20042;-80
2021/03/23 09:29:52;;;;;;;44.80;30.13;;;6.20;99.90;;;;;;4975423;28;20173;-78
2021/03/23 09:32:28;;;;;;;45.28;29.08;;;6.30;99.90;;;;;;4987634;28;20056;-78
2021/03/23 09:35:13;;;;;;;39.55;28.77;;;6.50;99.90;;;;;;4991478;28;20077;-78
2021/03/23 09:37:48;;;;;;;40.90;27.33;;;6.50;99.90;;;;;;4974789;28;20474;-77
2021/03/23 09:40:17;;;;;;;;;;;6.60;99.90;;;;;;4991232;28;20084;-77
2021/03/23 09:42:46;;;;;;;45.38;30.90;;;6.70;99.90;;;;;;4957303;28;19925;-78
2021/03/23 09:45:26;;;;;;;43.53;31.92;;;6.80;99.90;;;;;;4945653;28;20119;-78
2021/03/23 09:47:54;;;;;;;44.95;31.45;;;6.80;99.90;;;;;;4955944;28;20137;-77
2021/03/23 09:50:41;;;;;;;43.15;31.30;;;6.90;99.90;;;;;;4971280;28;20046;-79
2021/03/23 09:53:18;;;;;;;47.38;30.08;;;6.90;99.90;;;;;;4954414;28;20511;-78
2021/03/23 09:55:45;;;;;;;44.60;31.98;;;7.00;99.90;;;;;;4965659;28;20129;-78
2021/03/23 09:58:22;;;;;;;39.95;30.70;;;7.10;99.90;;;;;;4990507;28;20136;-79
2021/03/23 10:00:49;;;;;;;46.05;31.70;;;7.30;99.90;;;;;;4990219;28;20061;-78
2021/03/23 10:03:36;;;;;;;43.53;32.78;;;7.30;99.90;;;;;;5005377;28;20108;-77
2021/03/23 10:06:28;;;;;;;37.25;31.00;;;7.50;99.90;;;;;;4954989;28;20057;-77
2021/03/23 10:09:06;;;;;;;51.20;31.52;;;7.70;99.90;;;;;;4957444;28;20041;-77
2021/03/23 10:11:44;;;;;;;45.55;31.65;;;7.90;99.90;;;;;;4989536;28;20077;-78
2021/03/23 10:14:35;;;;;;;47.50;31.35;;;8.10;99.90;;;;;;4968119;28;20123;-77
2021/03/23 10:17:09;;;;;;;55.20;35.58;;;8.00;99.90;;;;;;4966182;28;20050;-78
2021/03/23 10:19:47;;;;;;;54.75;38.10;;;7.90;99.90;;;;;;4999560;28;20065;-77
2021/03/23 10:22:29;;;;;;;59.08;37.55;;;7.90;99.90;;;;;;4989161;28;20038;-77
2021/03/23 10:24:57;;;;;;;53.97;37.70;;;8.00;99.90;;;;;;4974058;28;20099;-77
2021/03/23 10:27:29;;;;;;;59.10;36.72;;;8.10;99.90;;;;;;4989927;28;20145;-78
2021/03/23 10:29:58;;;;;;;57.45;39.13;;;8.20;99.90;;;;;;4990113;28;20054;-78
2021/03/23 10:32:50;;;;;;;53.20;35.78;;;8.30;99.90;;;;;;4989159;28;20056;-78
2021/03/23 10:35:26;;;;;;;54.13;37.47;;;8.40;99.90;;;;;;4956776;28;20134;-78
2021/03/23 10:38:14;;;;;;;49.58;34.50;;;8.40;99.90;;;;;;4973829;28;20397;-77
2021/03/23 10:40:42;;;;;;;49.20;33.38;;;8.40;99.90;;;;;;4973660;28;20129;-77
2021/03/23 10:43:15;;;;;;;57.67;37.58;;;8.30;99.90;;;;;;5004190;28;20061;-77
2021/03/23 10:45:44;;;;;;;57.90;34.72;;;8.30;99.90;;;;;;5004940;28;20046;-77
2021/03/23 10:48:25;;;;;;;61.65;34.83;;;8.50;99.90;;;;;;4973967;28;20521;-77
2021/03/23 10:51:18;;;;;;;49.83;35.13;;;8.80;99.90;;;;;;4990059;28;20076;-78
2021/03/23 10:54:06;;;;;;;51.33;32.53;;;8.80;99.90;;;;;;4970622;28;20050;-77
2021/03/23 10:56:36;;;;;;;53.53;35.20;;;9.00;99.90;;;;;;4986810;28;20713;-78
2021/03/23 10:59:12;;;;;;;55.03;33.20;;;9.10;99.90;;;;;;4975566;28;20056;-78
2021/03/23 11:01:58;;;;;;;54.13;35.22;;;9.30;99.90;;;;;;4981218;28;20054;-79
2021/03/23 11:04:25;;;;;;;53.40;33.00;;;9.20;99.90;;;;;;4974921;28;20233;-77
2021/03/23 11:06:52;;;;;;;51.88;32.60;;;9.10;99.90;;;;;;4988614;28;20096;-77
2021/03/23 11:09:20;;;;;;;46.97;33.17;;;8.90;99.90;;;;;;4955543;28;20081;-77
2021/03/23 11:11:58;;;;;;;49.67;32.85;;;8.90;99.90;;;;;;5001775;28;20129;-78
2021/03/23 11:14:24;;;;;;;52.67;32.55;;;8.90;99.90;;;;;;4990429;28;20054;-76
2021/03/23 11:16:54;;;;;;;53.13;32.42;;;9.00;99.90;;;;;;4991502;28;20123;-76
2021/03/23 11:19:31;;;;;;;54.47;35.13;;;8.90;99.90;;;;;;4994280;28;20152;-76
2021/03/23 11:22:04;;;;;;;53.38;32.70;;;8.70;99.90;;;;;;5004703;28;20057;-74
2021/03/23 11:24:32;;;;;;;50.13;32.58;;;8.70;99.90;;;;;;5008925;28;20431;-75
2021/03/23 11:27:00;;;;;;;49.10;32.67;;;8.80;99.90;;;;;;4991760;28;20467;-75
2021/03/23 11:29:27;;;;;;;56.05;35.10;;;8.90;99.90;;;;;;5008100;28;20097;-75
2021/03/23 11:31:54;;;;;;;46.95;33.20;;;9.00;99.90;;;;;;5007899;28;20140;-76
2021/03/23 11:34:21;;;;;;;49.65;34.85;;;9.20;99.90;;;;;;5008113;28;20077;-75
2021/03/23 11:36:48;;;;;;;49.95;33.20;;;9.30;99.90;;;;;;4990941;28;20491;-74
2021/03/23 11:39:16;;;;;;;60.10;36.63;;;9.50;99.90;;;;;;5006871;28;20154;-75
2021/03/23 11:41:53;;;;;;;52.72;34.85;;;9.60;99.90;;;;;;5005552;28;20160;-75
2021/03/23 11:44:27;;;;;;;50.65;37.17;;;9.60;99.90;;;;;;4974036;28;20092;-75
2021/03/23 11:47:04;;;;;;;55.30;36.80;;;9.30;99.90;;;;;;5006772;28;20074;-75
2021/03/23 11:49:57;;;;;;;46.85;34.83;;;9.10;99.90;;;;;;4998231;28;20147;-75
2021/03/23 11:52:24;;;;;;;57.05;35.50;;;9.00;99.90;;;;;;4988282;28;20060;-76
2021/03/23 11:54:51;;;;;;;57.63;35.10;;;9.20;99.90;;;;;;5007083;28;20076;-74
2021/03/23 11:57:19;;;;;;;51.95;35.70;;;9.40;99.90;;;;;;5004604;28;20060;-74
2021/03/23 11:59:46;;;;;;;54.38;36.95;;;9.50;99.90;;;;;;4988194;28;20145;-76
2021/03/23 12:02:13;;;;;;;48.08;32.30;;;9.70;99.90;;;;;;5003976;28;20054;-75
2021/03/23 12:04:40;;;;;;;59.63;35.47;;;9.90;99.90;;;;;;4985004;28;20074;-77
2021/03/23 12:07:17;;;;;;;47.42;34.10;;;9.80;99.90;;;;;;4991197;28;20050;-76
2021/03/23 12:10:00;;;;;;;47.95;32.95;;;10.10;99.90;;;;;;5004865;28;20107;-77
2021/03/23 12:12:45;;;;;;;48.95;33.85;;;10.00;99.90;;;;;;5004364;28;20205;-76
2021/03/23 12:15:20;;;;;;;50.00;33.75;;;10.00;99.90;;;;;;5005259;28;20738;-76
2021/03/23 12:17:52;;;;;;;55.53;34.45;;;9.90;99.90;;;;;;4988070;28;20053;-75
2021/03/23 12:20:26;;;;;;;44.33;32.80;;;10.20;99.90;;;;;;5003769;28;20045;-77
2021/03/23 12:22:53;;;;;;;52.45;34.03;;;10.50;99.90;;;;;;4985369;28;20049;-75
2021/03/23 12:25:23;;;;;;;53.17;34.65;;;10.50;99.90;;;;;;4972550;28;20074;-75
2021/03/23 12:27:50;;;;;;;46.28;33.85;;;10.50;99.90;;;;;;4971448;28;20057;-75
2021/03/23 12:30:16;;;;;;;53.63;36.00;;;10.60;99.90;;;;;;4983662;28;20089;-76
2021/03/23 12:32:43;;;;;;;46.53;34.33;;;10.50;99.90;;;;;;4985250;28;20503;-76
2021/03/23 12:35:17;;;;;;;50.75;35.20;;;10.60;99.90;;;;;;4981711;28;20704;-75
2021/03/23 12:37:46;;;;;;;45.63;33.15;;;10.40;99.90;;;;;;5004409;28;20060;-75
2021/03/23 12:40:15;;;;;;;49.13;33.92;;;10.30;99.90;;;;;;5004001;28;20054;-75
2021/03/23 12:42:46;;;;;;;46.33;33.95;;;10.10;99.90;;;;;;4987565;28;20061;-75
2021/03/23 12:45:26;;;;;;;49.10;34.58;;;10.00;99.90;;;;;;5003851;28;20050;-76
2021/03/23 12:47:52;;;;;;;49.00;33.75;;;9.90;99.90;;;;;;5003441;28;20161;-74
2021/03/23 12:50:20;;;;;;;49.42;34.10;;;9.90;99.90;;;;;;4999233;28;20132;-75
2021/03/23 12:52:47;;;;;;;46.88;33.45;;;9.90;99.90;;;;;;4975864;28;20070;-74
2021/03/23 12:55:27;;;;;;;51.55;33.38;;;9.90;99.90;;;;;;5003171;28;20144;-75
2021/03/23 12:57:57;;;;;;;45.05;32.47;;;9.90;99.90;;;;;;4988237;28;20467;-76
2021/03/23 13:00:30;;;;;;;53.05;34.85;;;10.10;99.90;;;;;;5020068;28;20506;-76
2021/03/23 13:02:57;;;;;;;51.22;34.17;;;10.00;99.90;;;;;;4992961;28;20050;-75
2021/03/23 13:05:24;;;;;;;52.95;35.47;;;10.10;99.90;;;;;;4984313;28;20489;-75
2021/03/23 13:07:59;;;;;;;51.65;33.03;;;10.00;99.90;;;;;;4987238;28;20096;-76